Terminal Aerodrome Forecast
Issued by NWS

Current Version | Previous Version | Text Only | Print | Product List | Glossary Off
Versions: 1 2 3 4 5 6 7 8 9 10 11 12 13 14 15 16 17 18

000
FTUS41 KPBZ 010219 AAA
TAFMGW
TAF AMD
KMGW 010219Z 0102/0124 35010KT P6SM VCSH BKN035
     FM010300 36006KT P6SM VCSH OVC025
     FM011300 01006KT P6SM BKN035=

USA.gov is the U.S. government's official web portal to all federal, state and local government web resources and services.